sensor_id;sensor_type;location;lat;lon;timestamp;pressure;altitude;pressure_sealevel;temperature
20058;BMP180;10189;49.546;7.906;2023-04-03T00:01:16;99073.00;;;5.80
20058;BMP180;10189;49.546;7.906;2023-04-03T00:03:42;99079.00;;;5.80
20058;BMP180;10189;49.546;7.906;2023-04-03T00:06:09;99081.00;;;5.60
20058;BMP180;10189;49.546;7.906;2023-04-03T00:08:38;99074.00;;;5.50
20058;BMP180;10189;49.546;7.906;2023-04-03T00:11:04;99078.00;;;5.50
20058;BMP180;10189;49.546;7.906;2023-04-03T00:13:32;99082.00;;;5.30
20058;BMP180;10189;49.546;7.906;2023-04-03T00:15:58;99077.00;;;5.20
20058;BMP180;10189;49.546;7.906;2023-04-03T00:18:24;99084.00;;;5.10
20058;BMP180;10189;49.546;7.906;2023-04-03T00:20:50;99082.00;;;5.20
20058;BMP180;10189;49.546;7.906;2023-04-03T00:23:17;99084.00;;;5.20
20058;BMP180;10189;49.546;7.906;2023-04-03T00:25:43;99086.00;;;5.20
20058;BMP180;10189;49.546;7.906;2023-04-03T00:28:09;99084.00;;;5.20
20058;BMP180;10189;49.546;7.906;2023-04-03T00:30:35;99085.00;;;5.20
20058;BMP180;10189;49.546;7.906;2023-04-03T00:33:01;99080.00;;;5.10
20058;BMP180;10189;49.546;7.906;2023-04-03T00:35:28;99087.00;;;5.00
20058;BMP180;10189;49.546;7.906;2023-04-03T00:37:55;99091.00;;;5.00
20058;BMP180;10189;49.546;7.906;2023-04-03T00:40:24;99102.00;;;4.90
20058;BMP180;10189;49.546;7.906;2023-04-03T00:42:58;99109.00;;;4.90
20058;BMP180;10189;49.546;7.906;2023-04-03T00:45:40;99107.00;;;4.80
20058;BMP180;10189;49.546;7.906;2023-04-03T00:48:11;99108.00;;;4.80
20058;BMP180;10189;49.546;7.906;2023-04-03T00:50:41;99099.00;;;4.80
20058;BMP180;10189;49.546;7.906;2023-04-03T00:53:17;99102.00;;;4.70
20058;BMP180;10189;49.546;7.906;2023-04-03T00:55:47;99101.00;;;4.60
20058;BMP180;10189;49.546;7.906;2023-04-03T00:58:17;99107.00;;;4.50
20058;BMP180;10189;49.546;7.906;2023-04-03T01:00:50;99096.00;;;4.50
20058;BMP180;10189;49.546;7.906;2023-04-03T01:03:22;99092.00;;;4.40
20058;BMP180;10189;49.546;7.906;2023-04-03T01:05:48;99105.00;;;4.40
20058;BMP180;10189;49.546;7.906;2023-04-03T01:08:14;99100.00;;;4.50
20058;BMP180;10189;49.546;7.906;2023-04-03T01:10:40;99102.00;;;4.40
20058;BMP180;10189;49.546;7.906;2023-04-03T01:13:29;99100.00;;;4.40
20058;BMP180;10189;49.546;7.906;2023-04-03T01:15:56;99100.00;;;4.40
20058;BMP180;10189;49.546;7.906;2023-04-03T01:18:24;99096.00;;;4.40
20058;BMP180;10189;49.546;7.906;2023-04-03T01:26:24;99095.00;;;4.20
20058;BMP180;10189;49.546;7.906;2023-04-03T01:28:54;99095.00;;;4.20
20058;BMP180;10189;49.546;7.906;2023-04-03T01:34:37;99111.00;;;4.00
20058;BMP180;10189;49.546;7.906;2023-04-03T01:37:04;99105.00;;;4.00
20058;BMP180;10189;49.546;7.906;2023-04-03T01:39:30;99100.00;;;4.10
20058;BMP180;10189;49.546;7.906;2023-04-03T01:41:56;99102.00;;;4.00
20058;BMP180;10189;49.546;7.906;2023-04-03T01:44:30;99111.00;;;4.00
20058;BMP180;10189;49.546;7.906;2023-04-03T01:46:55;99108.00;;;4.00
20058;BMP180;10189;49.546;7.906;2023-04-03T01:49:23;99115.00;;;3.90
20058;BMP180;10189;49.546;7.906;2023-04-03T01:51:50;99114.00;;;3.90
20058;BMP180;10189;49.546;7.906;2023-04-03T01:54:16;99120.00;;;3.90
20058;BMP180;10189;49.546;7.906;2023-04-03T01:56:41;99113.00;;;4.00
20058;BMP180;10189;49.546;7.906;2023-04-03T01:59:09;99111.00;;;3.90
20058;BMP180;10189;49.546;7.906;2023-04-03T02:01:35;99104.00;;;3.90
20058;BMP180;10189;49.546;7.906;2023-04-03T02:04:01;99107.00;;;3.90
20058;BMP180;10189;49.546;7.906;2023-04-03T02:06:27;99101.00;;;3.90
20058;BMP180;10189;49.546;7.906;2023-04-03T02:08:53;99100.00;;;4.10
20058;BMP180;10189;49.546;7.906;2023-04-03T02:11:19;99092.00;;;4.10
20058;BMP180;10189;49.546;7.906;2023-04-03T02:13:45;99110.00;;;4.00
20058;BMP180;10189;49.546;7.906;2023-04-03T02:16:11;99099.00;;;4.00
20058;BMP180;10189;49.546;7.906;2023-04-03T02:18:38;99108.00;;;3.90
20058;BMP180;10189;49.546;7.906;2023-04-03T02:21:04;99102.00;;;4.00
20058;BMP180;10189;49.546;7.906;2023-04-03T02:23:31;99094.00;;;3.90
20058;BMP180;10189;49.546;7.906;2023-04-03T02:26:11;99096.00;;;4.00
20058;BMP180;10189;49.546;7.906;2023-04-03T02:28:38;99090.00;;;3.80
20058;BMP180;10189;49.546;7.906;2023-04-03T02:31:05;99094.00;;;3.80
20058;BMP180;10189;49.546;7.906;2023-04-03T02:33:33;99085.00;;;3.90
20058;BMP180;10189;49.546;7.906;2023-04-03T02:35:59;99088.00;;;3.90
20058;BMP180;10189;49.546;7.906;2023-04-03T02:38:26;99086.00;;;3.80
20058;BMP180;10189;49.546;7.906;2023-04-03T02:40:52;99085.00;;;3.90
20058;BMP180;10189;49.546;7.906;2023-04-03T02:43:19;99085.00;;;3.90
20058;BMP180;10189;49.546;7.906;2023-04-03T02:45:45;99084.00;;;3.90
20058;BMP180;10189;49.546;7.906;2023-04-03T02:48:10;99082.00;;;3.80
20058;BMP180;10189;49.546;7.906;2023-04-03T02:50:37;99076.00;;;3.90
20058;BMP180;10189;49.546;7.906;2023-04-03T02:53:03;99089.00;;;3.80
20058;BMP180;10189;49.546;7.906;2023-04-03T02:55:29;99085.00;;;3.80
20058;BMP180;10189;49.546;7.906;2023-04-03T02:57:56;99089.00;;;3.80
20058;BMP180;10189;49.546;7.906;2023-04-03T03:00:22;99090.00;;;3.80
20058;BMP180;10189;49.546;7.906;2023-04-03T03:02:49;99092.00;;;3.80
20058;BMP180;10189;49.546;7.906;2023-04-03T03:05:15;99089.00;;;3.70
20058;BMP180;10189;49.546;7.906;2023-04-03T03:07:41;99095.00;;;3.80
20058;BMP180;10189;49.546;7.906;2023-04-03T03:10:07;99095.00;;;3.70
20058;BMP180;10189;49.546;7.906;2023-04-03T03:12:34;99085.00;;;3.80
20058;BMP180;10189;49.546;7.906;2023-04-03T03:15:00;99088.00;;;3.90
20058;BMP180;10189;49.546;7.906;2023-04-03T03:17:26;99093.00;;;4.00
20058;BMP180;10189;49.546;7.906;2023-04-03T03:19:52;99088.00;;;4.00
20058;BMP180;10189;49.546;7.906;2023-04-03T03:22:18;99087.00;;;3.90
20058;BMP180;10189;49.546;7.906;2023-04-03T03:24:44;99088.00;;;3.80
20058;BMP180;10189;49.546;7.906;2023-04-03T03:27:10;99082.00;;;3.90
20058;BMP180;10189;49.546;7.906;2023-04-03T03:29:37;99090.00;;;3.80
20058;BMP180;10189;49.546;7.906;2023-04-03T03:32:04;99087.00;;;3.80
20058;BMP180;10189;49.546;7.906;2023-04-03T03:34:30;99092.00;;;3.90
20058;BMP180;10189;49.546;7.906;2023-04-03T03:36:56;99089.00;;;3.90
20058;BMP180;10189;49.546;7.906;2023-04-03T03:39:22;99085.00;;;3.90
20058;BMP180;10189;49.546;7.906;2023-04-03T03:41:48;99084.00;;;3.80
20058;BMP180;10189;49.546;7.906;2023-04-03T03:44:16;99088.00;;;3.70
20058;BMP180;10189;49.546;7.906;2023-04-03T03:46:41;99093.00;;;3.60
20058;BMP180;10189;49.546;7.906;2023-04-03T03:49:07;99099.00;;;3.50
20058;BMP180;10189;49.546;7.906;2023-04-03T03:51:34;99091.00;;;3.70
20058;BMP180;10189;49.546;7.906;2023-04-03T03:54:00;99089.00;;;3.60
20058;BMP180;10189;49.546;7.906;2023-04-03T03:56:26;99095.00;;;3.70
20058;BMP180;10189;49.546;7.906;2023-04-03T03:58:53;99088.00;;;3.70
20058;BMP180;10189;49.546;7.906;2023-04-03T04:01:20;99097.00;;;3.70
20058;BMP180;10189;49.546;7.906;2023-04-03T04:03:48;99097.00;;;3.70
20058;BMP180;10189;49.546;7.906;2023-04-03T04:06:19;99097.00;;;3.60
20058;BMP180;10189;49.546;7.906;2023-04-03T04:08:45;99111.00;;;3.50
20058;BMP180;10189;49.546;7.906;2023-04-03T04:11:13;99110.00;;;3.60
20058;BMP180;10189;49.546;7.906;2023-04-03T04:13:40;99102.00;;;3.50
20058;BMP180;10189;49.546;7.906;2023-04-03T04:16:08;99103.00;;;3.80
20058;BMP180;10189;49.546;7.906;2023-04-03T04:18:35;99106.00;;;3.80
20058;BMP180;10189;49.546;7.906;2023-04-03T04:21:01;99104.00;;;3.80
20058;BMP180;10189;49.546;7.906;2023-04-03T04:23:27;99095.00;;;3.80
20058;BMP180;10189;49.546;7.906;2023-04-03T04:25:54;99091.00;;;3.80
20058;BMP180;10189;49.546;7.906;2023-04-03T04:28:21;99096.00;;;3.70
20058;BMP180;10189;49.546;7.906;2023-04-03T04:30:50;99099.00;;;3.60
20058;BMP180;10189;49.546;7.906;2023-04-03T04:33:17;99094.00;;;3.80
20058;BMP180;10189;49.546;7.906;2023-04-03T04:35:47;99092.00;;;3.80
20058;BMP180;10189;49.546;7.906;2023-04-03T04:38:13;99096.00;;;3.60
20058;BMP180;10189;49.546;7.906;2023-04-03T04:40:39;99100.00;;;3.50
20058;BMP180;10189;49.546;7.906;2023-04-03T04:43:06;99104.00;;;3.50
20058;BMP180;10189;49.546;7.906;2023-04-03T04:45:32;99116.00;;;3.60
20058;BMP180;10189;49.546;7.906;2023-04-03T04:47:58;99115.00;;;3.60
20058;BMP180;10189;49.546;7.906;2023-04-03T04:50:25;99116.00;;;3.60
20058;BMP180;10189;49.546;7.906;2023-04-03T04:52:52;99105.00;;;3.70
20058;BMP180;10189;49.546;7.906;2023-04-03T04:55:18;99096.00;;;3.90
20058;BMP180;10189;49.546;7.906;2023-04-03T04:57:44;99106.00;;;3.80
20058;BMP180;10189;49.546;7.906;2023-04-03T05:00:12;99104.00;;;3.80
20058;BMP180;10189;49.546;7.906;2023-04-03T05:02:38;99115.00;;;3.70
20058;BMP180;10189;49.546;7.906;2023-04-03T05:05:05;99120.00;;;3.70
20058;BMP180;10189;49.546;7.906;2023-04-03T05:07:32;99117.00;;;3.70
20058;BMP180;10189;49.546;7.906;2023-04-03T05:09:59;99123.00;;;3.70
20058;BMP180;10189;49.546;7.906;2023-04-03T05:12:26;99128.00;;;3.70
20058;BMP180;10189;49.546;7.906;2023-04-03T05:14:57;99137.00;;;3.70
20058;BMP180;10189;49.546;7.906;2023-04-03T05:17:24;99135.00;;;3.80
20058;BMP180;10189;49.546;7.906;2023-04-03T05:19:54;99134.00;;;3.70
20058;BMP180;10189;49.546;7.906;2023-04-03T05:22:21;99137.00;;;3.70
20058;BMP180;10189;49.546;7.906;2023-04-03T05:24:48;99144.00;;;3.70
20058;BMP180;10189;49.546;7.906;2023-04-03T05:27:15;99136.00;;;3.60
20058;BMP180;10189;49.546;7.906;2023-04-03T05:29:46;99137.00;;;3.60
20058;BMP180;10189;49.546;7.906;2023-04-03T05:32:17;99144.00;;;3.50
20058;BMP180;10189;49.546;7.906;2023-04-03T05:34:48;99145.00;;;3.60
20058;BMP180;10189;49.546;7.906;2023-04-03T05:37:13;99146.00;;;3.60
20058;BMP180;10189;49.546;7.906;2023-04-03T05:39:40;99143.00;;;3.70
20058;BMP180;10189;49.546;7.906;2023-04-03T05:42:07;99145.00;;;3.80
20058;BMP180;10189;49.546;7.906;2023-04-03T05:44:34;99143.00;;;3.70
20058;BMP180;10189;49.546;7.906;2023-04-03T05:47:01;99154.00;;;3.80
20058;BMP180;10189;49.546;7.906;2023-04-03T05:49:26;99142.00;;;4.00
20058;BMP180;10189;49.546;7.906;2023-04-03T05:51:52;99141.00;;;4.20
20058;BMP180;10189;49.546;7.906;2023-04-03T05:54:29;99147.00;;;4.20
20058;BMP180;10189;49.546;7.906;2023-04-03T05:57:08;99143.00;;;4.20
20058;BMP180;10189;49.546;7.906;2023-04-03T05:59:34;99125.00;;;4.40
20058;BMP180;10189;49.546;7.906;2023-04-03T06:02:00;99133.00;;;4.50
20058;BMP180;10189;49.546;7.906;2023-04-03T06:04:27;99140.00;;;4.60
20058;BMP180;10189;49.546;7.906;2023-04-03T06:06:56;99142.00;;;4.80
20058;BMP180;10189;49.546;7.906;2023-04-03T06:09:27;99129.00;;;5.00
20058;BMP180;10189;49.546;7.906;2023-04-03T06:11:55;99134.00;;;5.10
20058;BMP180;10189;49.546;7.906;2023-04-03T06:14:23;99125.00;;;5.20
20058;BMP180;10189;49.546;7.906;2023-04-03T06:16:49;99128.00;;;5.40
20058;BMP180;10189;49.546;7.906;2023-04-03T06:19:15;99120.00;;;5.50
20058;BMP180;10189;49.546;7.906;2023-04-03T06:21:46;99125.00;;;5.70
20058;BMP180;10189;49.546;7.906;2023-04-03T06:24:16;99124.00;;;5.80
20058;BMP180;10189;49.546;7.906;2023-04-03T06:26:43;99121.00;;;5.70
20058;BMP180;10189;49.546;7.906;2023-04-03T06:29:09;99133.00;;;5.90
20058;BMP180;10189;49.546;7.906;2023-04-03T06:31:35;99133.00;;;5.80
20058;BMP180;10189;49.546;7.906;2023-04-03T06:34:03;99140.00;;;5.80
20058;BMP180;10189;49.546;7.906;2023-04-03T06:36:29;99142.00;;;5.70
20058;BMP180;10189;49.546;7.906;2023-04-03T06:38:55;99141.00;;;5.60
20058;BMP180;10189;49.546;7.906;2023-04-03T06:41:21;99135.00;;;5.60
20058;BMP180;10189;49.546;7.906;2023-04-03T06:43:47;99143.00;;;5.80
20058;BMP180;10189;49.546;7.906;2023-04-03T06:46:20;99146.00;;;5.80
20058;BMP180;10189;49.546;7.906;2023-04-03T06:48:46;99140.00;;;6.00
20058;BMP180;10189;49.546;7.906;2023-04-03T06:51:28;99153.00;;;6.10
20058;BMP180;10189;49.546;7.906;2023-04-03T06:53:58;99143.00;;;6.00
20058;BMP180;10189;49.546;7.906;2023-04-03T06:56:25;99142.00;;;6.30
20058;BMP180;10189;49.546;7.906;2023-04-03T06:58:53;99147.00;;;6.50
20058;BMP180;10189;49.546;7.906;2023-04-03T07:01:26;99146.00;;;6.50
20058;BMP180;10189;49.546;7.906;2023-04-03T07:03:53;99148.00;;;6.60
20058;BMP180;10189;49.546;7.906;2023-04-03T07:06:19;99147.00;;;6.50
20058;BMP180;10189;49.546;7.906;2023-04-03T07:08:46;99151.00;;;6.50
20058;BMP180;10189;49.546;7.906;2023-04-03T07:11:14;99157.00;;;6.50
20058;BMP180;10189;49.546;7.906;2023-04-03T07:13:40;99149.00;;;6.50
20058;BMP180;10189;49.546;7.906;2023-04-03T07:16:08;99153.00;;;6.50
20058;BMP180;10189;49.546;7.906;2023-04-03T07:18:34;99154.00;;;6.60
20058;BMP180;10189;49.546;7.906;2023-04-03T07:21:01;99143.00;;;6.60
20058;BMP180;10189;49.546;7.906;2023-04-03T07:23:27;99162.00;;;6.60
20058;BMP180;10189;49.546;7.906;2023-04-03T07:25:53;99179.00;;;6.50
20058;BMP180;10189;49.546;7.906;2023-04-03T07:28:21;99154.00;;;6.70
20058;BMP180;10189;49.546;7.906;2023-04-03T07:30:59;99162.00;;;6.90
20058;BMP180;10189;49.546;7.906;2023-04-03T07:33:25;99175.00;;;7.00
20058;BMP180;10189;49.546;7.906;2023-04-03T07:35:52;99186.00;;;6.80
20058;BMP180;10189;49.546;7.906;2023-04-03T07:38:18;99184.00;;;6.80
20058;BMP180;10189;49.546;7.906;2023-04-03T07:40:49;99179.00;;;7.20
20058;BMP180;10189;49.546;7.906;2023-04-03T07:43:17;99171.00;;;7.50
20058;BMP180;10189;49.546;7.906;2023-04-03T07:45:43;99168.00;;;7.60
20058;BMP180;10189;49.546;7.906;2023-04-03T07:48:13;99175.00;;;7.50
20058;BMP180;10189;49.546;7.906;2023-04-03T07:50:42;99168.00;;;7.50
20058;BMP180;10189;49.546;7.906;2023-04-03T07:53:08;99185.00;;;7.20
20058;BMP180;10189;49.546;7.906;2023-04-03T07:55:35;99179.00;;;7.40
20058;BMP180;10189;49.546;7.906;2023-04-03T07:58:13;99170.00;;;7.40
20058;BMP180;10189;49.546;7.906;2023-04-03T08:00:40;99174.00;;;7.60
20058;BMP180;10189;49.546;7.906;2023-04-03T08:03:09;99162.00;;;7.80
20058;BMP180;10189;49.546;7.906;2023-04-03T08:05:43;99175.00;;;7.80
20058;BMP180;10189;49.546;7.906;2023-04-03T08:08:13;99177.00;;;7.90
20058;BMP180;10189;49.546;7.906;2023-04-03T08:10:40;99172.00;;;8.00
20058;BMP180;10189;49.546;7.906;2023-04-03T08:13:08;99173.00;;;8.00
20058;BMP180;10189;49.546;7.906;2023-04-03T08:15:36;99159.00;;;8.20
20058;BMP180;10189;49.546;7.906;2023-04-03T08:18:04;99161.00;;;7.90
20058;BMP180;10189;49.546;7.906;2023-04-03T08:20:30;99173.00;;;8.00
20058;BMP180;10189;49.546;7.906;2023-04-03T08:22:55;99181.00;;;8.20
20058;BMP180;10189;49.546;7.906;2023-04-03T08:25:22;99160.00;;;8.20
20058;BMP180;10189;49.546;7.906;2023-04-03T08:27:48;99165.00;;;8.30
20058;BMP180;10189;49.546;7.906;2023-04-03T08:30:14;99168.00;;;8.70
20058;BMP180;10189;49.546;7.906;2023-04-03T08:32:40;99162.00;;;8.60
20058;BMP180;10189;49.546;7.906;2023-04-03T08:35:08;99156.00;;;8.40
20058;BMP180;10189;49.546;7.906;2023-04-03T08:37:39;99163.00;;;9.00
20058;BMP180;10189;49.546;7.906;2023-04-03T08:40:11;99168.00;;;8.50
20058;BMP180;10189;49.546;7.906;2023-04-03T08:48:35;99177.00;;;7.90
20058;BMP180;10189;49.546;7.906;2023-04-03T08:51:14;99160.00;;;8.20
20058;BMP180;10189;49.546;7.906;2023-04-03T08:54:02;99169.00;;;8.30
20058;BMP180;10189;49.546;7.906;2023-04-03T08:56:33;99166.00;;;8.20
20058;BMP180;10189;49.546;7.906;2023-04-03T08:59:10;99174.00;;;8.20
20058;BMP180;10189;49.546;7.906;2023-04-03T09:01:41;99165.00;;;8.40
20058;BMP180;10189;49.546;7.906;2023-04-03T09:04:17;99179.00;;;7.90
20058;BMP180;10189;49.546;7.906;2023-04-03T09:06:50;99179.00;;;7.90
20058;BMP180;10189;49.546;7.906;2023-04-03T09:09:35;99183.00;;;7.80
20058;BMP180;10189;49.546;7.906;2023-04-03T09:12:28;99196.00;;;8.00
20058;BMP180;10189;49.546;7.906;2023-04-03T09:15:21;99175.00;;;7.80
20058;BMP180;10189;49.546;7.906;2023-04-03T09:18:12;99174.00;;;8.30
20058;BMP180;10189;49.546;7.906;2023-04-03T09:21:27;99161.00;;;8.80
20058;BMP180;10189;49.546;7.906;2023-04-03T09:23:59;99181.00;;;8.60
20058;BMP180;10189;49.546;7.906;2023-04-03T09:26:36;99175.00;;;8.60
20058;BMP180;10189;49.546;7.906;2023-04-03T09:29:07;99170.00;;;8.50
20058;BMP180;10189;49.546;7.906;2023-04-03T09:31:40;99178.00;;;8.70
20058;BMP180;10189;49.546;7.906;2023-04-03T09:34:27;99170.00;;;8.70
20058;BMP180;10189;49.546;7.906;2023-04-03T09:37:00;99160.00;;;9.00
20058;BMP180;10189;49.546;7.906;2023-04-03T09:39:52;99153.00;;;9.30
20058;BMP180;10189;49.546;7.906;2023-04-03T09:42:26;99174.00;;;9.70
20058;BMP180;10189;49.546;7.906;2023-04-03T09:45:04;99157.00;;;8.90
20058;BMP180;10189;49.546;7.906;2023-04-03T09:47:36;99164.00;;;8.80
20058;BMP180;10189;49.546;7.906;2023-04-03T09:52:41;99178.00;;;8.70
20058;BMP180;10189;49.546;7.906;2023-04-03T09:58:01;99175.00;;;8.60
20058;BMP180;10189;49.546;7.906;2023-04-03T10:00:33;99169.00;;;8.90
20058;BMP180;10189;49.546;7.906;2023-04-03T10:03:00;99158.00;;;8.50
20058;BMP180;10189;49.546;7.906;2023-04-03T10:05:32;99168.00;;;8.80
20058;BMP180;10189;49.546;7.906;2023-04-03T10:08:30;99152.00;;;9.10
20058;BMP180;10189;49.546;7.906;2023-04-03T10:11:16;99160.00;;;9.70
20058;BMP180;10189;49.546;7.906;2023-04-03T10:13:58;99163.00;;;9.30
20058;BMP180;10189;49.546;7.906;2023-04-03T10:16:56;99160.00;;;9.00
20058;BMP180;10189;49.546;7.906;2023-04-03T10:25:41;99161.00;;;9.10
20058;BMP180;10189;49.546;7.906;2023-04-03T10:31:11;99179.00;;;8.50
20058;BMP180;10189;49.546;7.906;2023-04-03T10:37:12;99192.00;;;8.60
20058;BMP180;10189;49.546;7.906;2023-04-03T10:43:14;99166.00;;;8.80
20058;BMP180;10189;49.546;7.906;2023-04-03T10:46:09;99169.00;;;8.90
20058;BMP180;10189;49.546;7.906;2023-04-03T10:54:25;99157.00;;;9.30
20058;BMP180;10189;49.546;7.906;2023-04-03T10:56:57;99157.00;;;8.80
20058;BMP180;10189;49.546;7.906;2023-04-03T10:59:37;99173.00;;;9.00
20058;BMP180;10189;49.546;7.906;2023-04-03T11:02:36;99162.00;;;9.00
20058;BMP180;10189;49.546;7.906;2023-04-03T11:08:09;99148.00;;;9.30
20058;BMP180;10189;49.546;7.906;2023-04-03T11:10:44;99162.00;;;9.20
20058;BMP180;10189;49.546;7.906;2023-04-03T11:13:46;99168.00;;;8.90
20058;BMP180;10189;49.546;7.906;2023-04-03T11:16:15;99174.00;;;8.90
20058;BMP180;10189;49.546;7.906;2023-04-03T11:18:58;99166.00;;;8.90
20058;BMP180;10189;49.546;7.906;2023-04-03T11:21:57;99157.00;;;9.10
20058;BMP180;10189;49.546;7.906;2023-04-03T11:24:32;99155.00;;;9.70
20058;BMP180;10189;49.546;7.906;2023-04-03T11:27:00;99143.00;;;9.50
20058;BMP180;10189;49.546;7.906;2023-04-03T11:29:36;99119.00;;;9.80
20058;BMP180;10189;49.546;7.906;2023-04-03T11:34:51;99144.00;;;8.90
20058;BMP180;10189;49.546;7.906;2023-04-03T11:37:25;99142.00;;;9.00
20058;BMP180;10189;49.546;7.906;2023-04-03T11:40:29;99147.00;;;9.00
20058;BMP180;10189;49.546;7.906;2023-04-03T11:43:42;99118.00;;;9.30
20058;BMP180;10189;49.546;7.906;2023-04-03T11:46:19;99125.00;;;9.20
20058;BMP180;10189;49.546;7.906;2023-04-03T11:48:47;99135.00;;;9.40
20058;BMP180;10189;49.546;7.906;2023-04-03T11:53:43;99117.00;;;9.30
20058;BMP180;10189;49.546;7.906;2023-04-03T12:02:01;99112.00;;;9.30
20058;BMP180;10189;49.546;7.906;2023-04-03T12:04:28;99099.00;;;9.90
20058;BMP180;10189;49.546;7.906;2023-04-03T12:07:16;99098.00;;;10.20
20058;BMP180;10189;49.546;7.906;2023-04-03T12:12:56;99108.00;;;9.70
20058;BMP180;10189;49.546;7.906;2023-04-03T12:15:49;99108.00;;;9.60
20058;BMP180;10189;49.546;7.906;2023-04-03T12:21:08;99105.00;;;9.70
20058;BMP180;10189;49.546;7.906;2023-04-03T12:23:37;99086.00;;;9.80
20058;BMP180;10189;49.546;7.906;2023-04-03T12:26:26;99083.00;;;10.30
20058;BMP180;10189;49.546;7.906;2023-04-03T12:28:54;99079.00;;;10.10
20058;BMP180;10189;49.546;7.906;2023-04-03T12:31:25;99095.00;;;10.00
20058;BMP180;10189;49.546;7.906;2023-04-03T12:43:02;99072.00;;;9.80
20058;BMP180;10189;49.546;7.906;2023-04-03T12:45:47;99088.00;;;9.80
20058;BMP180;10189;49.546;7.906;2023-04-03T12:48:26;99081.00;;;10.00
20058;BMP180;10189;49.546;7.906;2023-04-03T12:50:54;99083.00;;;9.70
20058;BMP180;10189;49.546;7.906;2023-04-03T12:53:31;99093.00;;;9.50
20058;BMP180;10189;49.546;7.906;2023-04-03T12:58:52;99079.00;;;9.30
20058;BMP180;10189;49.546;7.906;2023-04-03T13:01:24;99084.00;;;9.40
20058;BMP180;10189;49.546;7.906;2023-04-03T13:03:55;99079.00;;;9.70
20058;BMP180;10189;49.546;7.906;2023-04-03T13:06:39;99093.00;;;9.50
20058;BMP180;10189;49.546;7.906;2023-04-03T13:09:21;99078.00;;;9.50
20058;BMP180;10189;49.546;7.906;2023-04-03T13:12:10;99088.00;;;9.60
20058;BMP180;10189;49.546;7.906;2023-04-03T13:14:37;99075.00;;;9.70
20058;BMP180;10189;49.546;7.906;2023-04-03T13:17:16;99081.00;;;9.50
20058;BMP180;10189;49.546;7.906;2023-04-03T13:19:44;99073.00;;;9.80
20058;BMP180;10189;49.546;7.906;2023-04-03T13:22:36;99075.00;;;9.90
20058;BMP180;10189;49.546;7.906;2023-04-03T13:25:13;99079.00;;;9.80
20058;BMP180;10189;49.546;7.906;2023-04-03T13:27:41;99084.00;;;9.70
20058;BMP180;10189;49.546;7.906;2023-04-03T13:30:27;99083.00;;;9.80
20058;BMP180;10189;49.546;7.906;2023-04-03T13:32:56;99081.00;;;9.80
20058;BMP180;10189;49.546;7.906;2023-04-03T13:35:31;99088.00;;;9.60
20058;BMP180;10189;49.546;7.906;2023-04-03T13:38:23;99081.00;;;9.50
20058;BMP180;10189;49.546;7.906;2023-04-03T13:40:58;99084.00;;;9.70
20058;BMP180;10189;49.546;7.906;2023-04-03T13:43:36;99073.00;;;9.80
20058;BMP180;10189;49.546;7.906;2023-04-03T13:46:25;99086.00;;;9.80
20058;BMP180;10189;49.546;7.906;2023-04-03T13:48:56;99083.00;;;9.70
20058;BMP180;10189;49.546;7.906;2023-04-03T13:51:29;99084.00;;;9.50
20058;BMP180;10189;49.546;7.906;2023-04-03T13:53:59;99072.00;;;10.00
20058;BMP180;10189;49.546;7.906;2023-04-03T13:56:36;99064.00;;;10.30
20058;BMP180;10189;49.546;7.906;2023-04-03T14:04:25;99067.00;;;10.10
20058;BMP180;10189;49.546;7.906;2023-04-03T14:06:52;99061.00;;;10.00
20058;BMP180;10189;49.546;7.906;2023-04-03T14:09:20;99065.00;;;10.00
20058;BMP180;10189;49.546;7.906;2023-04-03T14:11:49;99068.00;;;9.90
20058;BMP180;10189;49.546;7.906;2023-04-03T14:14:27;99052.00;;;9.80
20058;BMP180;10189;49.546;7.906;2023-04-03T14:16:57;99043.00;;;10.10
20058;BMP180;10189;49.546;7.906;2023-04-03T14:19:31;99040.00;;;10.30
20058;BMP180;10189;49.546;7.906;2023-04-03T14:21:59;99054.00;;;10.30
20058;BMP180;10189;49.546;7.906;2023-04-03T14:24:26;99040.00;;;9.70
20058;BMP180;10189;49.546;7.906;2023-04-03T14:26:54;99062.00;;;9.40
20058;BMP180;10189;49.546;7.906;2023-04-03T14:29:22;99049.00;;;9.60
20058;BMP180;10189;49.546;7.906;2023-04-03T14:31:49;99056.00;;;9.50
20058;BMP180;10189;49.546;7.906;2023-04-03T14:34:16;99050.00;;;9.20
20058;BMP180;10189;49.546;7.906;2023-04-03T14:36:48;99037.00;;;9.10
20058;BMP180;10189;49.546;7.906;2023-04-03T14:39:21;99036.00;;;9.40
20058;BMP180;10189;49.546;7.906;2023-04-03T14:41:48;99026.00;;;9.90
20058;BMP180;10189;49.546;7.906;2023-04-03T14:44:14;99021.00;;;10.00
20058;BMP180;10189;49.546;7.906;2023-04-03T14:46:43;99010.00;;;10.20
20058;BMP180;10189;49.546;7.906;2023-04-03T14:49:19;99022.00;;;10.20
20058;BMP180;10189;49.546;7.906;2023-04-03T14:51:46;99030.00;;;9.90
20058;BMP180;10189;49.546;7.906;2023-04-03T14:54:19;99016.00;;;10.10
20058;BMP180;10189;49.546;7.906;2023-04-03T14:56:51;99009.00;;;10.00
20058;BMP180;10189;49.546;7.906;2023-04-03T14:59:18;99013.00;;;9.80
20058;BMP180;10189;49.546;7.906;2023-04-03T15:01:46;99011.00;;;9.70
20058;BMP180;10189;49.546;7.906;2023-04-03T15:04:20;99007.00;;;9.60
20058;BMP180;10189;49.546;7.906;2023-04-03T15:06:48;99010.00;;;9.70
20058;BMP180;10189;49.546;7.906;2023-04-03T15:09:26;99007.00;;;9.90
20058;BMP180;10189;49.546;7.906;2023-04-03T15:11:54;99007.00;;;9.90
20058;BMP180;10189;49.546;7.906;2023-04-03T15:14:21;99006.00;;;10.00
20058;BMP180;10189;49.546;7.906;2023-04-03T15:16:48;99023.00;;;9.80
20058;BMP180;10189;49.546;7.906;2023-04-03T15:19:14;99007.00;;;9.70
20058;BMP180;10189;49.546;7.906;2023-04-03T15:21:40;99009.00;;;9.70
20058;BMP180;10189;49.546;7.906;2023-04-03T15:24:06;98999.00;;;9.90
20058;BMP180;10189;49.546;7.906;2023-04-03T15:26:32;99007.00;;;9.90
20058;BMP180;10189;49.546;7.906;2023-04-03T15:28:58;99005.00;;;10.10
20058;BMP180;10189;49.546;7.906;2023-04-03T15:31:24;99007.00;;;9.80
20058;BMP180;10189;49.546;7.906;2023-04-03T15:33:50;99006.00;;;9.70
20058;BMP180;10189;49.546;7.906;2023-04-03T15:36:16;99006.00;;;9.50
20058;BMP180;10189;49.546;7.906;2023-04-03T15:38:42;99007.00;;;9.40
20058;BMP180;10189;49.546;7.906;2023-04-03T15:41:08;99007.00;;;9.50
20058;BMP180;10189;49.546;7.906;2023-04-03T15:43:34;99007.00;;;9.50
20058;BMP180;10189;49.546;7.906;2023-04-03T15:46:01;99008.00;;;9.70
20058;BMP180;10189;49.546;7.906;2023-04-03T15:48:28;99013.00;;;9.60
20058;BMP180;10189;49.546;7.906;2023-04-03T15:50:54;99009.00;;;9.60
20058;BMP180;10189;49.546;7.906;2023-04-03T15:53:20;99019.00;;;9.60
20058;BMP180;10189;49.546;7.906;2023-04-03T15:55:46;99020.00;;;9.70
20058;BMP180;10189;49.546;7.906;2023-04-03T15:58:12;99022.00;;;9.50
20058;BMP180;10189;49.546;7.906;2023-04-03T16:00:38;98996.00;;;9.50